createdAt,value
2022-11-24T00:01:32.750Z,99.72
2022-11-24T00:04:06.601Z,100.00
2022-11-24T00:06:36.811Z,99.12
2022-11-24T00:09:07.711Z,99.01
2022-11-24T00:11:37.440Z,99.19
2022-11-24T00:14:07.584Z,100.00
2022-11-24T00:16:38.525Z,100.00
2022-11-24T00:19:14.584Z,100.00
2022-11-24T00:21:48.670Z,100.00
2022-11-24T00:24:19.248Z,100.00
2022-11-24T00:26:47.920Z,100.00
2022-11-24T00:29:17.577Z,100.00
2022-11-24T00:31:46.705Z,100.00
2022-11-24T00:34:18.119Z,100.00
2022-11-24T00:36:47.523Z,100.00
2022-11-24T00:39:17.313Z,100.00
2022-11-24T00:41:47.344Z,99.82
2022-11-24T00:44:16.065Z,99.58
2022-11-24T00:46:44.819Z,100.00
2022-11-24T00:49:15.992Z,100.00
2022-11-24T00:51:44.704Z,100.00
2022-11-24T00:54:13.405Z,100.00
2022-11-24T00:56:44.509Z,100.00
2022-11-24T00:59:17.049Z,100.00
2022-11-24T01:01:46.379Z,100.00
2022-11-24T01:04:15.071Z,100.00
2022-11-24T01:06:43.968Z,100.00
2022-11-24T01:09:13.707Z,100.00
2022-11-24T01:12:02.444Z,100.00
2022-11-24T01:14:34.155Z,99.25
2022-11-24T01:17:03.091Z,98.64
2022-11-24T01:19:31.873Z,99.20
2022-11-24T01:22:00.559Z,100.00
2022-11-24T01:24:29.338Z,99.66
2022-11-24T01:27:00.281Z,98.68
2022-11-24T01:29:29.286Z,98.65
2022-11-24T01:31:59.359Z,99.44
2022-11-24T01:34:28.193Z,99.73
2022-11-24T01:36:56.876Z,98.88
2022-11-24T01:39:25.575Z,99.36
2022-11-24T01:41:54.836Z,98.87
2022-11-24T01:44:25.404Z,98.10
2022-11-24T01:46:58.767Z,98.80
2022-11-24T01:49:39.417Z,99.51
2022-11-24T01:52:13.053Z,99.04
2022-11-24T01:54:47.222Z,99.23
2022-11-24T01:57:20.590Z,99.22
2022-11-24T01:59:52.837Z,98.70
2022-11-24T02:02:29.677Z,98.46
2022-11-24T02:05:04.949Z,98.40
2022-11-24T02:07:34.335Z,97.40
2022-11-24T02:10:09.391Z,97.65
2022-11-24T02:12:39.792Z,98.56
2022-11-24T02:15:11.865Z,97.50
2022-11-24T02:17:42.987Z,97.70
2022-11-24T02:20:14.564Z,98.32
2022-11-24T02:22:52.611Z,98.62
2022-11-24T02:25:28.404Z,98.22
2022-11-24T02:28:01.026Z,99.26
2022-11-24T02:30:29.917Z,98.10
2022-11-24T02:32:58.923Z,97.32
2022-11-24T02:35:28.335Z,96.85
2022-11-24T02:37:59.252Z,98.23
2022-11-24T02:40:31.112Z,98.72
2022-11-24T02:43:10.554Z,98.44
2022-11-24T02:45:39.269Z,98.19
2022-11-24T02:48:08.739Z,98.56
2022-11-24T02:50:38.329Z,97.93
2022-11-24T02:53:09.431Z,97.43
2022-11-24T02:55:40.202Z,98.31
2022-11-24T02:58:10.442Z,98.88
2022-11-24T03:00:41.603Z,98.82
2022-11-24T03:03:10.516Z,99.07
2022-11-24T03:05:39.485Z,99.42
2022-11-24T03:08:11.258Z,98.75
2022-11-24T03:10:40.509Z,98.60
2022-11-24T03:13:15.498Z,98.59
2022-11-24T03:15:44.258Z,97.89
2022-11-24T03:18:12.973Z,97.76
2022-11-24T03:20:41.922Z,96.95
2022-11-24T03:23:10.564Z,96.75
2022-11-24T03:25:42.295Z,96.58
2022-11-24T03:28:13.091Z,96.43
2022-11-24T03:30:43.214Z,96.27
2022-11-24T03:33:11.924Z,95.97
2022-11-24T03:35:41.463Z,93.75
2022-11-24T03:38:10.310Z,93.93
2022-11-24T03:40:38.978Z,94.38
2022-11-24T03:43:08.120Z,95.20
2022-11-24T03:45:52.387Z,95.36
2022-11-24T03:48:22.879Z,95.41
2022-11-24T03:50:56.515Z,96.51
2022-11-24T03:53:26.956Z,96.51
2022-11-24T03:55:56.468Z,97.20
2022-11-24T03:58:27.407Z,97.56
2022-11-24T04:00:58.609Z,97.55
2022-11-24T04:03:28.813Z,97.21
2022-11-24T04:05:57.932Z,96.90
2022-11-24T04:08:26.730Z,96.70
2022-11-24T04:10:59.578Z,97.63
2022-11-24T04:13:27.764Z,97.87
2022-11-24T04:15:56.882Z,98.33
2022-11-24T04:18:25.645Z,98.40
2022-11-24T04:20:55.825Z,98.35
2022-11-24T04:23:24.622Z,98.51
2022-11-24T04:25:53.255Z,98.04
2022-11-24T04:28:22.162Z,97.91
2022-11-24T04:30:51.109Z,98.18
2022-11-24T04:33:19.805Z,98.59
2022-11-24T04:35:48.609Z,96.58
2022-11-24T04:39:23.849Z,96.20
2022-11-24T04:41:10.728Z,96.17
2022-11-24T04:43:40.879Z,96.69
2022-11-24T04:46:12.934Z,96.40
2022-11-24T04:48:42.993Z,96.97
2022-11-24T04:51:11.917Z,95.33
2022-11-24T04:53:42.461Z,94.12
2022-11-24T04:56:11.511Z,94.05
2022-11-24T04:58:40.141Z,94.61
2022-11-24T05:01:09.531Z,94.74
2022-11-24T05:03:38.195Z,94.54
2022-11-24T05:06:08.883Z,95.65
2022-11-24T05:08:37.898Z,96.41
2022-11-24T05:11:08.805Z,96.49
2022-11-24T05:13:37.683Z,96.94
2022-11-24T05:16:09.852Z,97.31
2022-11-24T05:18:39.044Z,96.93
2022-11-24T05:21:07.852Z,95.37
2022-11-24T05:23:37.113Z,95.70
2022-11-24T05:26:07.857Z,95.97
2022-11-24T05:28:38.254Z,96.23
2022-11-24T05:31:10.039Z,96.74
2022-11-24T05:33:39.199Z,97.67
2022-11-24T05:36:08.976Z,97.21
2022-11-24T05:38:40.252Z,97.20
2022-11-24T05:41:12.843Z,96.81
2022-11-24T05:43:42.307Z,96.39
2022-11-24T05:46:11.086Z,97.05
2022-11-24T05:48:40.113Z,97.74
2022-11-24T05:51:09.512Z,97.11
2022-11-24T05:53:38.761Z,97.41
2022-11-24T05:56:08.360Z,97.59
2022-11-24T05:58:41.414Z,96.19
2022-11-24T06:01:10.153Z,97.64
2022-11-24T06:03:38.858Z,98.52
2022-11-24T06:06:08.321Z,98.60
2022-11-24T06:08:37.453Z,98.47
2022-11-24T06:11:18.565Z,98.24
2022-11-24T06:13:49.650Z,98.75
2022-11-24T06:16:18.708Z,99.37
2022-11-24T06:18:48.951Z,98.94
2022-11-24T06:21:18.736Z,98.91
2022-11-24T06:23:49.853Z,99.59
2022-11-24T06:26:19.464Z,100.00
2022-11-24T06:28:50.614Z,100.00
2022-11-24T06:31:23.069Z,100.00
2022-11-24T06:33:53.313Z,100.00
2022-11-24T06:36:25.678Z,100.00
2022-11-24T06:38:56.410Z,100.00
2022-11-24T06:41:26.414Z,100.00
2022-11-24T06:43:58.424Z,100.00
2022-11-24T06:46:30.681Z,100.00
2022-11-24T06:49:00.918Z,100.00
2022-11-24T06:51:30.833Z,100.00
2022-11-24T06:54:08.409Z,100.00
2022-11-24T06:56:38.368Z,100.00
2022-11-24T06:59:16.754Z,100.00
2022-11-24T07:01:53.298Z,100.00
2022-11-24T07:04:23.338Z,100.00
2022-11-24T07:06:53.538Z,100.00
2022-11-24T07:09:24.223Z,100.00
2022-11-24T07:11:57.259Z,100.00
2022-11-24T07:14:29.069Z,100.00
2022-11-24T07:16:58.960Z,100.00
2022-11-24T07:19:29.211Z,100.00
2022-11-24T07:22:02.255Z,100.00
2022-11-24T07:24:31.709Z,100.00
2022-11-24T07:27:01.701Z,100.00
2022-11-24T07:29:33.751Z,100.00
2022-11-24T07:32:05.811Z,100.00
2022-11-24T07:34:35.611Z,100.00
2022-11-24T07:37:05.227Z,100.00
2022-11-24T07:39:34.949Z,100.00
2022-11-24T07:42:05.274Z,100.00
2022-11-24T07:44:36.123Z,100.00
2022-11-24T07:47:06.239Z,100.00
2022-11-24T07:49:37.247Z,100.00
2022-11-24T07:52:06.421Z,100.00
2022-11-24T07:54:35.404Z,100.00
2022-11-24T07:57:04.359Z,100.00
2022-11-24T07:59:36.572Z,100.00
2022-11-24T08:02:05.286Z,100.00
2022-11-24T08:04:38.135Z,100.00
2022-11-24T08:07:07.570Z,100.00
2022-11-24T08:09:36.304Z,100.00
2022-11-24T08:12:06.537Z,100.00
2022-11-24T08:14:37.738Z,100.00
2022-11-24T08:17:10.396Z,100.00
2022-11-24T08:19:42.722Z,100.00
2022-11-24T08:22:14.672Z,100.00
2022-11-24T08:24:48.035Z,100.00
2022-11-24T08:27:21.288Z,100.00
2022-11-24T08:29:52.954Z,100.00
2022-11-24T08:32:22.869Z,100.00
2022-11-24T08:34:59.481Z,100.00
2022-11-24T08:37:34.117Z,100.00
2022-11-24T08:40:04.127Z,100.00
2022-11-24T08:42:33.776Z,100.00
2022-11-24T08:45:23.042Z,100.00
2022-11-24T08:47:57.925Z,100.00
2022-11-24T08:50:28.157Z,100.00
2022-11-24T08:52:57.724Z,100.00
2022-11-24T08:55:27.218Z,100.00
2022-11-24T08:57:56.231Z,100.00
2022-11-24T09:00:24.968Z,100.00
2022-11-24T09:02:59.665Z,100.00
2022-11-24T09:05:51.325Z,100.00
2022-11-24T09:08:18.059Z,100.00
2022-11-24T09:10:46.787Z,100.00
2022-11-24T09:13:16.321Z,100.00
2022-11-24T09:15:45.252Z,100.00
2022-11-24T09:18:15.641Z,100.00
2022-11-24T09:20:44.642Z,100.00
2022-11-24T09:23:14.727Z,100.00
2022-11-24T09:25:43.564Z,100.00
2022-11-24T09:28:13.233Z,100.00
2022-11-24T09:30:45.099Z,100.00
2022-11-24T09:33:15.617Z,100.00
2022-11-24T09:35:44.560Z,100.00
2022-11-24T09:38:16.330Z,100.00
2022-11-24T09:40:45.090Z,100.00
2022-11-24T09:43:21.168Z,100.00
2022-11-24T09:46:05.465Z,100.00
2022-11-24T09:48:39.936Z,100.00
2022-11-24T09:51:13.361Z,100.00
2022-11-24T09:53:47.919Z,99.29
2022-11-24T09:56:22.109Z,99.08
2022-11-24T09:58:53.193Z,99.23
2022-11-24T10:01:25.835Z,98.33
2022-11-24T10:04:02.606Z,97.58
2022-11-24T10:06:42.055Z,97.57
2022-11-24T10:09:30.499Z,97.03
2022-11-24T10:12:17.338Z,95.88
2022-11-24T10:15:01.668Z,95.69
2022-11-24T10:17:45.530Z,94.30
2022-11-24T10:20:22.970Z,93.67
2022-11-24T10:23:10.552Z,91.97
2022-11-24T10:25:49.588Z,91.14
2022-11-24T10:28:21.350Z,91.86
2022-11-24T10:30:51.007Z,91.68
2022-11-24T10:33:30.326Z,91.90
2022-11-24T10:36:10.118Z,91.20
2022-11-24T10:38:45.317Z,90.95
2022-11-24T10:41:19.737Z,89.41
2022-11-24T10:43:48.467Z,89.48
2022-11-24T10:46:23.038Z,89.95
2022-11-24T10:48:54.775Z,88.20
2022-11-24T10:51:47.800Z,88.11
2022-11-24T10:54:20.674Z,88.55
2022-11-24T10:56:52.606Z,87.63
2022-11-24T10:59:30.329Z,88.16
2022-11-24T11:01:59.731Z,88.23
2022-11-24T11:04:31.055Z,88.26
2022-11-24T11:07:18.763Z,87.10
2022-11-24T11:09:49.097Z,85.74
2022-11-24T11:15:24.811Z,83.97
2022-11-24T11:17:59.895Z,84.19
2022-11-24T11:20:35.412Z,83.66
2022-11-24T11:23:16.975Z,84.04
2022-11-24T11:25:46.222Z,84.39
2022-11-24T11:28:26.485Z,81.17
2022-11-24T11:31:19.841Z,81.90
2022-11-24T11:34:07.281Z,81.61
2022-11-24T11:36:45.055Z,81.02
2022-11-24T11:39:26.243Z,82.42
2022-11-24T11:42:08.346Z,82.06
2022-11-24T11:44:41.511Z,80.95
2022-11-24T11:47:18.874Z,81.14
2022-11-24T11:49:50.773Z,80.87
2022-11-24T11:53:01.692Z,81.29
2022-11-24T11:55:48.169Z,80.57
2022-11-24T11:58:45.788Z,80.25
2022-11-24T12:01:33.101Z,80.30
2022-11-24T12:04:21.366Z,80.58
2022-11-24T12:07:00.938Z,80.30
2022-11-24T12:09:45.151Z,79.96
2022-11-24T12:12:33.688Z,79.88
2022-11-24T12:15:13.454Z,79.62
2022-11-24T12:17:49.824Z,79.09
2022-11-24T12:20:32.525Z,78.21
2022-11-24T12:23:11.557Z,78.87
2022-11-24T12:25:49.045Z,78.62
2022-11-24T12:28:34.473Z,76.71
2022-11-24T12:31:07.797Z,77.30
2022-11-24T12:34:16.824Z,78.03
2022-11-24T12:37:01.441Z,78.45
2022-11-24T12:39:37.328Z,77.62
2022-11-24T12:42:14.039Z,77.47
2022-11-24T12:45:06.114Z,77.77
2022-11-24T12:47:58.941Z,77.17
2022-11-24T12:50:30.603Z,77.64
2022-11-24T12:53:05.899Z,77.58
2022-11-24T12:55:35.052Z,78.01
2022-11-24T12:58:11.686Z,77.77
2022-11-24T13:00:58.925Z,77.07
2022-11-24T13:03:42.641Z,78.13
2022-11-24T13:06:15.521Z,77.68
2022-11-24T13:08:45.225Z,78.16
2022-11-24T13:11:38.048Z,78.13
2022-11-24T13:14:16.825Z,78.39
2022-11-24T13:19:45.021Z,76.30
2022-11-24T13:22:19.768Z,76.29
2022-11-24T13:25:13.459Z,76.69
2022-11-24T13:27:45.245Z,76.22
2022-11-24T13:30:59.498Z,76.83
2022-11-24T13:33:32.920Z,77.45
2022-11-24T13:36:31.040Z,77.66
2022-11-24T13:39:02.788Z,78.20
2022-11-24T13:42:09.479Z,76.82
2022-11-24T13:44:49.586Z,76.96
2022-11-24T13:47:37.577Z,78.35
2022-11-24T13:50:15.629Z,78.16
2022-11-24T13:52:49.190Z,78.37
2022-11-24T13:55:25.808Z,77.85
2022-11-24T13:57:59.555Z,78.94
2022-11-24T14:00:32.065Z,79.41
2022-11-24T14:03:04.872Z,77.69
2022-11-24T14:05:41.485Z,78.96
2022-11-24T14:08:20.462Z,79.78
2022-11-24T14:10:49.922Z,79.21
2022-11-24T14:13:30.154Z,79.98
2022-11-24T14:16:13.879Z,80.41
2022-11-24T14:18:44.290Z,81.23
2022-11-24T14:21:27.158Z,81.60
2022-11-24T14:23:59.904Z,82.00
2022-11-24T14:26:34.192Z,80.93
2022-11-24T14:29:08.356Z,81.82
2022-11-24T14:31:37.592Z,81.99
2022-11-24T14:34:16.144Z,82.55
2022-11-24T14:36:46.575Z,84.05
2022-11-24T14:39:19.409Z,83.34
2022-11-24T14:41:53.515Z,83.88
2022-11-24T14:44:25.243Z,83.45
2022-11-24T14:47:03.557Z,84.84
2022-11-24T14:49:35.498Z,84.21
2022-11-24T14:52:14.125Z,84.38
2022-11-24T14:54:48.957Z,85.01
2022-11-24T14:57:27.094Z,85.65
2022-11-24T15:00:17.006Z,85.97
2022-11-24T15:02:48.532Z,86.82
2022-11-24T15:05:17.855Z,87.79
2022-11-24T15:07:52.955Z,87.31
2022-11-24T15:10:33.577Z,86.33
2022-11-24T15:13:06.636Z,87.31
2022-11-24T15:15:38.180Z,85.64
2022-11-24T15:18:07.950Z,86.28
2022-11-24T15:20:41.771Z,85.43
2022-11-24T15:23:23.488Z,86.07
2022-11-24T15:25:53.334Z,85.34
2022-11-24T15:28:25.712Z,85.02
2022-11-24T15:30:55.616Z,84.20
2022-11-24T15:33:25.058Z,85.52
2022-11-24T15:35:54.174Z,85.50
2022-11-24T15:38:24.371Z,86.82
2022-11-24T15:40:55.980Z,87.29
2022-11-24T15:43:31.935Z,85.43
2022-11-24T15:46:01.647Z,87.17
2022-11-24T15:48:31.143Z,87.39
2022-11-24T15:51:02.578Z,86.66
2022-11-24T15:53:35.663Z,87.50
2022-11-24T15:56:07.280Z,87.16
2022-11-24T15:58:36.043Z,87.95
2022-11-24T16:01:05.479Z,88.23
2022-11-24T16:03:47.112Z,88.55
2022-11-24T16:06:24.688Z,88.26
2022-11-24T16:08:59.234Z,89.04
2022-11-24T16:11:28.247Z,88.43
2022-11-24T16:13:57.166Z,88.52
2022-11-24T16:16:30.652Z,89.70
2022-11-24T16:19:00.266Z,89.08
2022-11-24T16:21:29.508Z,89.67
2022-11-24T16:23:59.629Z,89.67
2022-11-24T16:26:28.738Z,90.25
2022-11-24T16:28:58.169Z,91.17
2022-11-24T16:31:28.927Z,90.58
2022-11-24T16:33:57.546Z,90.51
2022-11-24T16:36:26.793Z,90.90
2022-11-24T16:38:56.027Z,91.49
2022-11-24T16:41:26.390Z,90.55
2022-11-24T16:43:55.101Z,89.92
2022-11-24T16:46:25.404Z,90.72
2022-11-24T16:48:56.046Z,90.09
2022-11-24T16:51:29.899Z,90.39
2022-11-24T16:54:03.673Z,91.14
2022-11-24T16:56:34.356Z,92.13
2022-11-24T16:59:03.580Z,90.67
2022-11-24T17:01:32.828Z,90.68
2022-11-24T17:04:08.206Z,92.92
2022-11-24T17:06:44.716Z,90.79
2022-11-24T17:09:13.694Z,90.99
2022-11-24T17:11:44.088Z,90.89
2022-11-24T17:14:14.791Z,90.78
2022-11-24T17:16:43.548Z,90.70
2022-11-24T17:19:13.007Z,90.13
2022-11-24T17:21:41.742Z,90.18
2022-11-24T17:24:17.617Z,90.26
2022-11-24T17:26:50.458Z,91.47
2022-11-24T17:29:19.253Z,92.58
2022-11-24T17:31:50.474Z,91.17
2022-11-24T17:34:21.692Z,91.15
2022-11-24T17:36:50.843Z,92.31
2022-11-24T17:39:24.514Z,92.44
2022-11-24T17:41:55.084Z,92.20
2022-11-24T17:44:24.356Z,92.18
2022-11-24T17:46:53.475Z,92.38
2022-11-24T17:49:24.642Z,92.37
2022-11-24T17:51:53.291Z,91.50
2022-11-24T17:54:45.540Z,90.85
2022-11-24T17:57:12.191Z,92.08
2022-11-24T17:59:40.898Z,91.44
2022-11-24T18:02:10.955Z,90.97
2022-11-24T18:04:39.773Z,91.38
2022-11-24T18:07:11.403Z,92.50
2022-11-24T18:09:40.290Z,92.65
2022-11-24T18:12:09.476Z,92.55
2022-11-24T18:14:40.026Z,92.63
2022-11-24T18:17:10.279Z,91.65
2022-11-24T18:19:39.056Z,91.87
2022-11-24T18:22:08.414Z,93.33
2022-11-24T18:24:40.524Z,93.13
2022-11-24T18:27:10.362Z,93.38
2022-11-24T18:29:40.571Z,93.29
2022-11-24T18:32:09.568Z,93.85
2022-11-24T18:34:38.265Z,93.39
2022-11-24T18:37:08.737Z,92.08
2022-11-24T18:39:37.454Z,93.02
2022-11-24T18:42:07.456Z,92.08
2022-11-24T18:44:36.582Z,92.45
2022-11-24T18:47:07.988Z,91.39
2022-11-24T18:49:36.611Z,91.75
2022-11-24T18:52:05.869Z,92.06
2022-11-24T18:54:35.478Z,92.64
2022-11-24T18:57:05.371Z,92.30
2022-11-24T18:59:36.969Z,92.36
2022-11-24T19:02:12.339Z,93.14
2022-11-24T19:04:41.234Z,92.22
2022-11-24T19:07:10.466Z,92.20
2022-11-24T19:09:39.203Z,93.51
2022-11-24T19:12:10.393Z,94.76
2022-11-24T19:14:41.665Z,93.29
2022-11-24T19:17:11.925Z,93.43
2022-11-24T19:19:40.676Z,93.37
2022-11-24T19:22:10.057Z,92.13
2022-11-24T19:24:41.625Z,91.98
2022-11-24T19:27:10.779Z,91.73
2022-11-24T19:29:43.053Z,92.24
2022-11-24T19:32:16.948Z,91.83
2022-11-24T19:34:46.340Z,91.92
2022-11-24T19:37:15.286Z,91.00
2022-11-24T19:39:43.956Z,92.29
2022-11-24T19:42:13.458Z,92.04
2022-11-24T19:44:42.193Z,92.78
2022-11-24T19:47:13.087Z,92.90
2022-11-24T19:49:43.199Z,94.07
2022-11-24T19:52:12.445Z,92.38
2022-11-24T19:54:41.371Z,92.63
2022-11-24T19:57:10.485Z,92.45
2022-11-24T19:59:39.450Z,92.96
2022-11-24T20:02:08.427Z,92.11
2022-11-24T20:04:39.827Z,92.25
2022-11-24T20:07:11.137Z,91.63
2022-11-24T20:09:39.924Z,90.83
2022-11-24T20:12:09.921Z,91.11
2022-11-24T20:14:38.817Z,89.29
2022-11-24T20:17:07.950Z,89.54
2022-11-24T20:19:36.647Z,89.71
2022-11-24T20:22:06.405Z,88.96
2022-11-24T20:24:37.154Z,89.72
2022-11-24T20:27:06.471Z,89.73
2022-11-24T20:29:35.123Z,90.35
2022-11-24T20:32:03.834Z,90.52
2022-11-24T20:34:33.051Z,91.03
2022-11-24T20:37:03.507Z,91.43
2022-11-24T20:39:36.636Z,91.08
2022-11-24T20:42:05.930Z,91.04
2022-11-24T20:44:37.736Z,91.13
2022-11-24T20:47:09.470Z,91.31
2022-11-24T20:49:40.410Z,90.81
2022-11-24T20:52:09.129Z,91.77
2022-11-24T20:54:39.920Z,91.35
2022-11-24T20:57:09.107Z,92.74
2022-11-24T20:59:39.740Z,92.03
2022-11-24T21:02:12.556Z,93.37
2022-11-24T21:04:41.540Z,93.75
2022-11-24T21:07:13.511Z,93.02
2022-11-24T21:09:43.817Z,94.19
2022-11-24T21:12:13.353Z,93.91
2022-11-24T21:14:42.657Z,94.42
2022-11-24T21:17:12.552Z,94.46
2022-11-24T21:19:42.045Z,93.97
2022-11-24T21:22:11.427Z,94.12
2022-11-24T21:24:40.539Z,95.50
2022-11-24T21:27:10.822Z,94.80
2022-11-24T21:29:42.198Z,94.81
2022-11-24T21:32:11.170Z,96.06
2022-11-24T21:34:40.606Z,95.08
2022-11-24T21:37:09.507Z,95.12
2022-11-24T21:39:38.284Z,96.09
2022-11-24T21:42:07.575Z,97.11
2022-11-24T21:44:37.692Z,96.52
2022-11-24T21:47:06.899Z,95.48
2022-11-24T21:49:35.878Z,95.88
2022-11-24T21:52:04.805Z,96.78
2022-11-24T21:54:33.645Z,96.42
2022-11-24T21:57:02.684Z,96.85
2022-11-24T21:59:31.567Z,96.47
2022-11-24T22:02:01.996Z,96.60
2022-11-24T22:04:30.748Z,96.67
2022-11-24T22:07:02.506Z,96.14
2022-11-24T22:09:33.926Z,96.27
2022-11-24T22:12:03.367Z,95.78
2022-11-24T22:14:37.461Z,95.84
2022-11-24T22:17:10.718Z,96.96
2022-11-24T22:19:39.381Z,95.90
2022-11-24T22:22:08.574Z,95.96
2022-11-24T22:24:37.645Z,97.13
2022-11-24T22:27:06.480Z,96.18
2022-11-24T22:29:35.142Z,95.52
2022-11-24T22:32:08.202Z,95.92
2022-11-24T22:34:38.979Z,96.77
2022-11-24T22:37:09.318Z,96.83
2022-11-24T22:39:38.799Z,97.79
2022-11-24T22:42:08.028Z,98.76
2022-11-24T22:44:38.830Z,98.05
2022-11-24T22:47:08.338Z,98.11
2022-11-24T22:49:39.477Z,98.69
2022-11-24T22:52:09.332Z,99.10
2022-11-24T22:54:38.986Z,99.33
2022-11-24T22:57:09.483Z,98.77
2022-11-24T22:59:38.663Z,98.47
2022-11-24T23:02:08.017Z,97.89
2022-11-24T23:04:38.805Z,98.74
2022-11-24T23:07:08.242Z,99.71
2022-11-24T23:09:37.544Z,99.22
2022-11-24T23:12:07.400Z,99.97
2022-11-24T23:14:36.670Z,100.00
2022-11-24T23:17:06.993Z,100.00
2022-11-24T23:19:36.345Z,100.00
2022-11-24T23:22:07.806Z,100.00
2022-11-24T23:24:40.449Z,100.00
2022-11-24T23:27:10.736Z,100.00
2022-11-24T23:29:40.828Z,100.00
2022-11-24T23:32:11.891Z,100.00
2022-11-24T23:34:46.040Z,100.00
2022-11-24T23:37:17.488Z,100.00
2022-11-24T23:39:48.415Z,100.00
2022-11-24T23:42:18.447Z,100.00
2022-11-24T23:44:50.867Z,100.00
2022-11-24T23:47:20.635Z,100.00
2022-11-24T23:49:51.910Z,100.00
2022-11-24T23:52:22.965Z,100.00
2022-11-24T23:54:52.481Z,100.00
2022-11-24T23:57:24.205Z,100.00
2022-11-24T23:59:53.399Z,100.00
